Time;durP1;ratioP1;P1;durP2;ratioP2;P2;SDS_P1;SDS_P2;PMS_P1;PMS_P2;Temp;Humidity;BMP_temperature;BMP_pressure;BME280_temperature;BME280_humidity;BME280_pressure;Samples;Min_cycle;Max_cycle;Signal;HPM_P1;HPM_P2
2022/11/03 00:00:56;;;;;;;;;;;;;;;18.79;47.20;99865.47;4433696;32;33961;-85
2022/11/03 00:03:26;;;;;;;;;;;;;;;18.23;48.82;99862.41;4451263;32;34214;-86
2022/11/03 00:06:05;;;;;;;;;;;;;;;18.23;48.52;99858.03;4454936;32;34079;-88
2022/11/03 00:08:34;;;;;;;;;;;;;;;18.07;49.29;99851.16;4467119;32;35301;-87
2022/11/03 00:11:06;;;;;;;;;;;;;;;18.42;48.31;99850.88;4474448;32;34589;-87
2022/11/03 00:13:33;;;;;;;;;;;;;;;18.44;48.15;99851.72;4482884;32;33238;-86
2022/11/03 00:16:00;;;;;;;;;;;;;;;18.70;47.51;99856.78;4478411;32;33796;-86
2022/11/03 00:18:28;;;;;;;;;;;;;;;18.40;48.18;99849.16;4460934;32;33886;-87
2022/11/03 00:20:59;;;;;;;;;;;;;;;18.08;49.00;99862.53;4451537;32;34784;-87
2022/11/03 00:23:29;;;;;;;;;;;;;;;17.83;49.96;99865.28;4451760;32;33344;-87
2022/11/03 00:26:17;;;;;;;;;;;;;;;17.74;49.96;99860.94;4456127;32;34078;-85
2022/11/03 00:28:44;;;;;;;;;;;;;;;18.05;49.31;99849.41;4468921;32;34800;-88
2022/11/03 00:31:12;;;;;;;;;;;;;;;18.26;48.58;99853.63;4482999;32;34353;-87
2022/11/03 00:33:40;;;;;;;;;;;;;;;18.40;47.51;99851.78;4468485;32;34371;-84
2022/11/03 00:36:07;;;;;;;;;;;;;;;19.03;46.39;99856.47;4472415;32;33931;-85
2022/11/03 00:38:36;;;;;;;;;;;;;;;19.34;45.50;99855.25;4456733;32;34117;-84
2022/11/03 00:41:04;;;;;;;;;;;;;;;19.32;45.12;99843.88;4456571;32;34297;-85
2022/11/03 00:43:32;;;;;;;;;;;;;;;19.22;45.59;99851.91;4466452;32;34415;-84
2022/11/03 00:46:00;;;;;;;;;;;;;;;19.22;45.14;99854.53;4465630;32;34222;-85
2022/11/03 00:48:29;;;;;;;;;;;;;;;19.40;44.59;99849.91;4465869;32;35102;-85
2022/11/03 00:50:59;;;;;;;;;;;;;;;19.07;45.44;99845.91;4473429;32;35135;-84
2022/11/03 00:53:27;;;;;;;;;;;;;;;19.00;45.95;99838.97;4464925;32;33240;-86
2022/11/03 00:55:54;;;;;;;;;;;;;;;19.45;44.83;99837.56;4453107;32;33857;-85
2022/11/03 00:58:21;;;;;;;;;;;;;;;19.25;45.02;99843.97;4466909;32;34148;-85
2022/11/03 01:00:49;;;;;;;;;;;;;;;18.91;45.51;99841.72;4471737;32;34374;-86
2022/11/03 01:03:16;;;;;;;;;;;;;;;18.65;46.54;99842.81;4469273;32;34067;-85
2022/11/03 01:08:32;;;;;;;;;;;;;;;18.63;46.50;99843.69;4466321;32;34843;-87
2022/11/03 01:13:53;;;;;;;;;;;;;;;18.37;46.95;99836.94;4466703;32;33799;-87
2022/11/03 01:16:20;;;;;;;;;;;;;;;16.88;50.75;99834.16;4462460;32;34672;-85
2022/11/03 01:18:48;;;;;;;;;;;;;;;17.57;48.77;99830.41;4460647;32;34082;-84
2022/11/03 01:21:15;;;;;;;;;;;;;;;17.42;48.83;99833.97;4466581;32;34111;-85
2022/11/03 01:23:42;;;;;;;;;;;;;;;16.97;50.50;99830.63;4466631;32;33229;-86
2022/11/03 01:26:10;;;;;;;;;;;;;;;18.20;47.26;99823.06;4463617;32;33830;-84
2022/11/03 01:28:38;;;;;;;;;;;;;;;18.54;46.30;99828.03;4446502;32;34084;-85
2022/11/03 01:31:15;;;;;;;;;;;;;;;18.94;45.31;99823.28;4466306;32;35074;-86
2022/11/03 01:33:44;;;;;;;;;;;;;;;18.92;45.04;99822.44;4466106;32;33794;-85
2022/11/03 01:36:11;;;;;;;;;;;;;;;18.45;45.74;99815.88;4461810;32;34216;-84
2022/11/03 01:38:38;;;;;;;;;;;;;;;18.74;44.79;99825.25;4475598;32;35214;-87
2022/11/03 01:41:09;;;;;;;;;;;;;;;18.99;44.07;99820.63;4481704;32;34333;-87
2022/11/03 01:43:37;;;;;;;;;;;;;;;19.17;43.66;99823.03;4470849;32;34206;-86
2022/11/03 01:46:23;;;;;;;;;;;;;;;19.25;43.29;99822.94;4454922;32;33809;-87
2022/11/03 01:48:55;;;;;;;;;;;;;;;19.24;43.01;99822.06;4462238;32;34399;-85
2022/11/03 01:51:22;;;;;;;;;;;;;;;19.28;42.59;99826.41;4451759;32;34490;-85
2022/11/03 01:53:50;;;;;;;;;;;;;;;19.34;42.47;99815.81;4465438;32;33244;-84
2022/11/03 01:56:17;;;;;;;;;;;;;;;19.24;42.71;99822.06;4466347;32;34034;-86
2022/11/03 01:58:45;;;;;;;;;;;;;;;19.19;42.72;99818.63;4453224;32;34200;-86
2022/11/03 02:01:12;;;;;;;;;;;;;;;19.01;43.10;99821.44;4453105;32;34106;-84
2022/11/03 02:03:41;;;;;;;;;;;;;;;18.99;43.14;99818.00;4467874;32;33247;-85
2022/11/03 02:06:09;;;;;;;;;;;;;;;19.08;42.78;99810.00;4461967;32;34012;-85
2022/11/03 02:08:36;;;;;;;;;;;;;;;19.02;42.72;99805.69;4451300;32;34101;-84
2022/11/03 02:12:05;;;;;;;;;;;;;;;18.83;42.75;99817.28;4467708;32;34149;-85
2022/11/03 02:13:51;;;;;;;;;;;;;;;18.65;43.04;99816.53;4467732;32;33177;-84
2022/11/03 02:16:18;;;;;;;;;;;;;;;19.09;41.84;99816.97;4472950;32;31746;-85
2022/11/03 02:18:45;;;;;;;;;;;;;;;18.95;41.71;99825.03;4450634;32;34263;-85
2022/11/03 02:21:21;;;;;;;;;;;;;;;18.76;42.41;99834.00;4468151;32;33778;-86
2022/11/03 02:24:08;;;;;;;;;;;;;;;18.94;42.26;99825.91;4453847;32;33534;-84
2022/11/03 02:26:35;;;;;;;;;;;;;;;18.94;42.25;99823.28;4461305;32;34872;-84
2022/11/03 02:29:03;;;;;;;;;;;;;;;18.70;42.78;99824.38;4467537;32;35236;-86
2022/11/03 02:31:30;;;;;;;;;;;;;;;18.82;42.76;99826.91;4466960;32;34090;-85
2022/11/03 02:34:00;;;;;;;;;;;;;;;18.92;42.44;99836.44;4469490;32;33615;-85
2022/11/03 02:36:40;;;;;;;;;;;;;;;18.92;42.24;99832.94;4472154;32;34959;-85
2022/11/03 02:39:14;;;;;;;;;;;;;;;18.56;43.32;99831.50;4465385;32;34133;-87
2022/11/03 02:41:41;;;;;;;;;;;;;;;18.78;43.06;99835.69;4467598;32;35084;-85
2022/11/03 02:44:11;;;;;;;;;;;;;;;18.41;43.46;99833.41;4453081;32;33625;-85
2022/11/03 02:46:38;;;;;;;;;;;;;;;18.50;43.53;99827.19;4452756;32;34609;-85
2022/11/03 02:49:05;;;;;;;;;;;;;;;18.50;43.60;99821.06;4452884;32;33862;-86
2022/11/03 02:51:33;;;;;;;;;;;;;;;18.55;43.46;99820.13;4467784;32;35140;-85
2022/11/03 02:54:09;;;;;;;;;;;;;;;18.13;44.46;99821.38;4467399;32;33976;-86
2022/11/03 02:56:38;;;;;;;;;;;;;;;17.88;45.06;99813.69;4467085;32;33799;-85
2022/11/03 02:59:07;;;;;;;;;;;;;;;17.99;44.84;99809.22;4451175;32;34791;-86
2022/11/03 03:01:35;;;;;;;;;;;;;;;18.12;44.57;99798.62;4461748;32;34224;-84
2022/11/03 03:04:05;;;;;;;;;;;;;;;18.16;44.42;99805.59;4466206;32;33601;-84
2022/11/03 03:06:34;;;;;;;;;;;;;;;17.85;44.78;99805.81;4467155;32;32694;-85
2022/11/03 03:09:02;;;;;;;;;;;;;;;17.89;44.67;99802.31;4467141;32;35231;-86
2022/11/03 03:11:36;;;;;;;;;;;;;;;18.15;43.86;99806.50;4461948;32;34168;-85
2022/11/03 03:14:09;;;;;;;;;;;;;;;18.31;43.13;99805.47;4467043;32;33720;-86
2022/11/03 03:16:59;;;;;;;;;;;;;;;18.23;43.31;99804.69;4453547;32;35686;-85
2022/11/03 03:19:45;;;;;;;;;;;;;;;18.39;42.79;99810.66;4462750;32;35077;-86
2022/11/03 03:22:33;;;;;;;;;;;;;;;18.30;42.75;99803.75;4475987;32;34198;-85
2022/11/03 03:25:02;;;;;;;;;;;;;;;18.36;42.48;99803.66;4466779;32;32388;-83
2022/11/03 03:27:30;;;;;;;;;;;;;;;18.44;42.43;99807.09;4451879;32;33972;-85
2022/11/03 03:29:59;;;;;;;;;;;;;;;18.42;42.41;99808.88;4452885;32;35141;-85
2022/11/03 03:32:27;;;;;;;;;;;;;;;18.11;42.88;99805.66;4452501;32;34402;-85
2022/11/03 03:34:54;;;;;;;;;;;;;;;18.00;43.26;99802.22;4438224;32;34273;-85
2022/11/03 03:37:21;;;;;;;;;;;;;;;18.10;43.38;99805.63;4445128;32;34032;-84
2022/11/03 03:39:50;;;;;;;;;;;;;;;18.37;42.90;99813.31;4467675;32;33830;-83
2022/11/03 03:42:17;;;;;;;;;;;;;;;18.48;41.96;99808.81;4461408;32;34453;-86
2022/11/03 03:44:45;;;;;;;;;;;;;;;18.46;41.99;99815.84;4467941;32;34305;-85
2022/11/03 03:47:20;;;;;;;;;;;;;;;18.31;42.36;99810.72;4453583;32;33935;-85
2022/11/03 03:49:48;;;;;;;;;;;;;;;18.35;42.17;99808.94;4467736;32;34265;-85
2022/11/03 03:52:15;;;;;;;;;;;;;;;18.37;42.04;99813.31;4476038;32;34858;-84
2022/11/03 03:54:42;;;;;;;;;;;;;;;18.26;41.88;99817.78;4453383;32;33301;-85
2022/11/03 03:57:12;;;;;;;;;;;;;;;18.19;42.31;99811.69;4467408;32;33781;-84
2022/11/03 03:59:39;;;;;;;;;;;;;;;18.21;42.29;99816.91;4467612;32;34201;-87
2022/11/03 04:02:06;;;;;;;;;;;;;;;18.17;42.11;99807.34;4457070;32;35000;-84
2022/11/03 04:04:34;;;;;;;;;;;;;;;17.81;43.01;99804.09;4452103;32;33439;-84
2022/11/03 04:09:48;;;;;;;;;;;;;;;17.55;43.70;99819.09;4473737;32;34391;-85
2022/11/03 04:23:19;;;;;;;;;;;;;;;17.43;43.68;99820.88;4451932;32;34410;-85
2022/11/03 04:25:47;;;;;;;;;;;;;;;17.41;43.27;99814.75;4451598;32;33354;-86
2022/11/03 04:28:14;;;;;;;;;;;;;;;17.56;42.89;99805.97;4437804;32;34830;-84
2022/11/03 04:30:41;;;;;;;;;;;;;;;17.64;42.72;99812.03;4463645;32;35159;-86
2022/11/03 04:33:19;;;;;;;;;;;;;;;17.72;42.52;99804.09;4459311;32;34493;-85
2022/11/03 04:35:46;;;;;;;;;;;;;;;17.63;42.65;99809.41;4442911;32;33104;-85
2022/11/03 04:38:13;;;;;;;;;;;;;;;17.65;42.64;99811.16;4466588;32;34103;-83
2022/11/03 04:40:45;;;;;;;;;;;;;;;17.75;42.09;99817.25;4476882;32;35089;-86
2022/11/03 04:43:18;;;;;;;;;;;;;;;17.50;42.40;99819.97;4453264;32;34094;-86
2022/11/03 04:45:46;;;;;;;;;;;;;;;17.38;42.81;99814.78;4452373;32;34004;-84
2022/11/03 04:48:14;;;;;;;;;;;;;;;17.66;42.32;99819.91;4453194;32;34758;-85
2022/11/03 04:50:41;;;;;;;;;;;;;;;17.41;42.89;99811.28;4466329;32;34318;-87
2022/11/03 04:53:13;;;;;;;;;;;;;;;17.48;42.83;99810.37;4466577;32;35249;-85
2022/11/03 04:55:40;;;;;;;;;;;;;;;17.72;42.47;99809.34;4451936;32;34376;-85
2022/11/03 04:58:21;;;;;;;;;;;;;;;17.76;42.45;99803.25;4466482;32;33987;-85
2022/11/03 05:00:52;;;;;;;;;;;;;;;17.82;42.22;99811.09;4471693;32;34049;-85
2022/11/03 05:03:21;;;;;;;;;;;;;;;17.77;42.19;99820.75;4469083;32;34245;-85
2022/11/03 05:05:48;;;;;;;;;;;;;;;17.78;42.09;99819.00;4466156;32;34355;-84
2022/11/03 05:08:19;;;;;;;;;;;;;;;17.92;41.87;99810.16;4461733;32;33970;-85
2022/11/03 05:10:46;;;;;;;;;;;;;;;18.03;41.62;99809.19;4452046;32;34090;-84
2022/11/03 05:13:15;;;;;;;;;;;;;;;17.79;41.86;99812.84;4461241;32;35101;-86
2022/11/03 05:15:44;;;;;;;;;;;;;;;17.85;41.72;99808.44;4452436;32;33093;-84
2022/11/03 05:18:19;;;;;;;;;;;;;;;17.97;41.55;99813.59;4463946;32;33792;-84
2022/11/03 05:20:49;;;;;;;;;;;;;;;17.99;41.51;99806.59;4456463;32;33974;-84
2022/11/03 05:23:17;;;;;;;;;;;;;;;17.96;41.63;99809.25;4462378;32;34192;-85
2022/11/03 05:25:44;;;;;;;;;;;;;;;18.06;41.54;99812.66;4460956;32;33437;-85
2022/11/03 05:28:15;;;;;;;;;;;;;;;18.10;41.31;99816.13;4445240;32;33755;-86
2022/11/03 05:30:42;;;;;;;;;;;;;;;17.70;41.97;99819.00;4464257;32;35269;-87
2022/11/03 05:33:29;;;;;;;;;;;;;;;17.79;41.99;99816.34;4470263;32;33816;-84
2022/11/03 05:35:58;;;;;;;;;;;;;;;17.92;41.84;99804.03;4460111;32;34620;-86
2022/11/03 05:38:27;;;;;;;;;;;;;;;18.08;41.60;99815.28;4468280;32;35069;-86
2022/11/03 05:40:55;;;;;;;;;;;;;;;18.01;41.80;99818.84;4464119;32;37001;-86
2022/11/03 05:43:22;;;;;;;;;;;;;;;18.16;41.34;99822.22;4464497;32;34075;-84
2022/11/03 05:45:50;;;;;;;;;;;;;;;18.09;41.52;99817.87;4459388;32;34271;-84
2022/11/03 05:48:20;;;;;;;;;;;;;;;18.09;41.32;99812.63;4460023;32;33832;-85
2022/11/03 05:50:47;;;;;;;;;;;;;;;18.01;41.69;99816.22;4448913;32;34706;-86
2022/11/03 05:53:15;;;;;;;;;;;;;;;18.29;41.03;99815.09;4458930;32;34265;-86
2022/11/03 05:55:42;;;;;;;;;;;;;;;18.29;41.11;99817.72;4457844;32;34000;-86
2022/11/03 05:58:13;;;;;;;;;;;;;;;18.33;41.03;99823.81;4444026;32;33838;-85
2022/11/03 06:00:40;;;;;;;;;;;;;;;17.61;41.89;99824.28;4451900;32;33119;-84
2022/11/03 06:03:15;;;;;;;;;;;;;;;17.46;42.45;99835.72;4457175;32;34284;-85
2022/11/03 06:05:42;;;;;;;;;;;;;;;16.87;44.02;99844.66;4453979;32;33545;-86
2022/11/03 06:08:16;;;;;;;;;;;;;;;16.86;43.94;99841.16;4467056;32;34243;-86
2022/11/03 06:10:44;;;;;;;;;;;;;;;16.28;45.65;99846.38;4481233;32;35162;-85
2022/11/03 06:13:17;;;;;;;;;;;;;;;15.73;47.28;99852.41;4468491;32;34396;-86
2022/11/03 06:15:45;;;;;;;;;;;;;;;15.36;48.19;99867.03;4483683;32;34333;-86
2022/11/03 06:18:15;;;;;;;;;;;;;;;16.10;46.73;99868.19;4484188;32;34109;-86
2022/11/03 06:20:43;;;;;;;;;;;;;;;15.93;47.56;99870.75;4456824;32;35069;-84
2022/11/03 06:23:11;;;;;;;;;;;;;;;16.31;46.47;99867.31;4444650;32;33856;-86
2022/11/03 06:25:40;;;;;;;;;;;;;;;16.91;45.38;99881.31;4449089;32;33620;-85
2022/11/03 06:28:10;;;;;;;;;;;;;;;17.30;44.35;99879.47;4471336;32;34239;-85
2022/11/03 06:30:38;;;;;;;;;;;;;;;17.73;43.53;99884.56;4454054;32;35559;-85
2022/11/03 06:33:08;;;;;;;;;;;;;;;17.32;44.44;99882.97;4454589;32;34041;-84
2022/11/03 06:35:35;;;;;;;;;;;;;;;17.11;45.00;99883.88;4466987;32;33238;-84
2022/11/03 06:38:04;;;;;;;;;;;;;;;17.06;45.21;99882.16;4472539;32;33151;-87
2022/11/03 06:40:32;;;;;;;;;;;;;;;16.70;45.87;99886.53;4469708;32;35222;-86
2022/11/03 06:43:00;;;;;;;;;;;;;;;16.07;47.39;99889.09;4469011;32;34179;-85
2022/11/03 06:45:28;;;;;;;;;;;;;;;16.69;46.31;99890.88;4457334;32;33291;-83
2022/11/03 06:47:55;;;;;;;;;;;;;;;16.68;46.49;99889.16;4468013;32;33828;-85
2022/11/03 06:50:29;;;;;;;;;;;;;;;16.98;45.89;99880.41;4467812;32;34257;-84
2022/11/03 06:52:57;;;;;;;;;;;;;;;17.23;45.25;99889.06;4467982;32;34510;-84
2022/11/03 06:55:25;;;;;;;;;;;;;;;17.09;45.69;99885.66;4468031;32;33543;-86
2022/11/03 06:57:54;;;;;;;;;;;;;;;17.51;44.68;99889.00;4454130;32;34070;-87
2022/11/03 07:00:25;;;;;;;;;;;;;;;17.31;45.26;99891.69;4467987;32;35129;-85
2022/11/03 07:03:02;;;;;;;;;;;;;;;16.42;47.34;99899.63;4454907;32;33879;-85
2022/11/03 07:05:31;;;;;;;;;;;;;;;17.34;45.85;99891.66;4452794;32;33109;-86
2022/11/03 07:07:59;;;;;;;;;;;;;;;17.90;44.60;99890.59;4438636;32;34496;-87
2022/11/03 07:10:27;;;;;;;;;;;;;;;17.67;45.49;99895.06;4438291;32;34112;-86
2022/11/03 07:12:55;;;;;;;;;;;;;;;17.71;45.55;99895.03;4452273;32;34550;-85
2022/11/03 07:15:24;;;;;;;;;;;;;;;17.64;46.03;99895.06;4452598;32;34225;-86
2022/11/03 07:17:51;;;;;;;;;;;;;;;17.69;46.28;99898.53;4440720;32;33984;-85
2022/11/03 07:20:19;;;;;;;;;;;;;;;18.07;45.44;99889.63;4468017;32;34979;-87
2022/11/03 07:22:46;;;;;;;;;;;;;;;17.03;47.85;99902.22;4467821;32;35265;-84
2022/11/03 07:25:15;;;;;;;;;;;;;;;16.73;49.92;99904.84;4458269;32;34480;-87
2022/11/03 07:27:42;;;;;;;;;;;;;;;16.30;52.34;99907.47;4438279;32;33467;-87
2022/11/03 07:30:20;;;;;;;;;;;;;;;16.59;52.46;99909.22;4438165;32;34396;-87
2022/11/03 07:32:51;;;;;;;;;;;;;;;16.95;51.93;99906.62;4438851;32;34394;-86
2022/11/03 07:35:28;;;;;;;;;;;;;;;17.09;51.47;99906.59;4451971;32;34132;-86
2022/11/03 07:38:20;;;;;;;;;;;;;;;16.82;52.88;99911.84;4452118;32;34067;-85
2022/11/03 07:40:48;;;;;;;;;;;;;;;16.44;53.13;99910.06;4452238;32;35301;-85
2022/11/03 07:43:19;;;;;;;;;;;;;;;16.96;51.82;99900.50;4443370;32;34095;-85
2022/11/03 07:45:47;;;;;;;;;;;;;;;16.74;53.06;99904.00;4453304;32;33476;-84
2022/11/03 07:48:14;;;;;;;;;;;;;;;16.46;54.46;99908.34;4467517;32;34204;-84
2022/11/03 07:50:42;;;;;;;;;;;;;;;16.04;55.80;99900.44;4467899;32;35384;-86
2022/11/03 07:53:11;;;;;;;;;;;;;;;16.99;53.33;99899.63;4467172;32;34506;-85
2022/11/03 07:55:38;;;;;;;;;;;;;;;16.21;54.95;99907.44;4453363;32;33309;-84
2022/11/03 07:58:17;;;;;;;;;;;;;;;15.32;57.80;99902.72;4467633;32;34202;-84
2022/11/03 08:00:44;;;;;;;;;;;;;;;15.81;56.77;99907.34;4453711;32;33940;-84
2022/11/03 08:03:20;;;;;;;;;;;;;;;15.50;57.56;99904.56;4467228;32;35316;-84
2022/11/03 08:05:47;;;;;;;;;;;;;;;15.77;57.11;99890.78;4444394;32;33657;-85
2022/11/03 08:08:14;;;;;;;;;;;;;;;14.88;59.82;99898.97;4451779;32;34751;-84
2022/11/03 08:10:41;;;;;;;;;;;;;;;15.30;58.68;99904.47;4451953;32;34118;-86
2022/11/03 08:13:08;;;;;;;;;;;;;;;15.72;57.68;99902.06;4452065;32;34003;-86
2022/11/03 08:15:36;;;;;;;;;;;;;;;15.51;58.14;99892.38;4451731;32;33085;-85
2022/11/03 08:18:03;;;;;;;;;;;;;;;15.33;58.75;99895.75;4451781;32;33901;-84
2022/11/03 08:20:30;;;;;;;;;;;;;;;15.87;57.32;99890.78;4455994;32;33695;-85
2022/11/03 08:22:58;;;;;;;;;;;;;;;15.53;58.53;99906.31;4466508;32;35263;-85
2022/11/03 08:25:45;;;;;;;;;;;;;;;14.92;60.54;99906.81;4467271;32;33566;-85
2022/11/03 08:28:12;;;;;;;;;;;;;;;14.94;60.08;99905.12;4467295;32;35763;-84
2022/11/03 08:30:39;;;;;;;;;;;;;;;14.48;61.34;99898.62;4467457;32;34893;-86
2022/11/03 08:33:07;;;;;;;;;;;;;;;14.91;60.67;99889.44;4467238;32;35493;-84
2022/11/03 08:35:35;;;;;;;;;;;;;;;14.89;60.18;99893.78;4460828;32;34017;-85
2022/11/03 08:38:02;;;;;;;;;;;;;;;14.70;60.69;99891.88;4437983;32;34691;-86
2022/11/03 08:40:29;;;;;;;;;;;;;;;14.98;60.04;99903.41;4451932;32;34333;-84
2022/11/03 08:42:57;;;;;;;;;;;;;;;14.63;61.29;99893.59;4451607;32;35188;-85
2022/11/03 08:45:24;;;;;;;;;;;;;;;14.96;60.20;99881.63;4451786;32;34481;-86
2022/11/03 08:47:51;;;;;;;;;;;;;;;14.70;61.28;99884.03;4437442;32;32671;-85
2022/11/03 08:50:18;;;;;;;;;;;;;;;15.31;59.32;99879.22;4465166;32;35297;-86
2022/11/03 08:52:45;;;;;;;;;;;;;;;15.28;59.39;99876.59;4467337;32;34578;-85
2022/11/03 08:55:15;;;;;;;;;;;;;;;15.75;57.85;99866.34;4465419;32;34384;-85
2022/11/03 08:57:43;;;;;;;;;;;;;;;15.66;58.52;99873.31;4464081;32;35006;-85
2022/11/03 09:00:10;;;;;;;;;;;;;;;15.27;59.41;99878.34;4464835;32;35081;-85
2022/11/03 09:02:37;;;;;;;;;;;;;;;15.55;58.16;99874.09;4451120;32;34316;-84
2022/11/03 09:05:08;;;;;;;;;;;;;;;15.28;59.34;99876.59;4451774;32;33770;-84
2022/11/03 09:07:35;;;;;;;;;;;;;;;15.66;58.33;99870.69;4453130;32;35158;-85
2022/11/03 09:10:23;;;;;;;;;;;;;;;14.67;61.17;99868.38;4461419;32;34055;-85
2022/11/03 09:13:00;;;;;;;;;;;;;;;14.83;60.84;99870.22;4467993;32;34327;-86
2022/11/03 09:15:28;;;;;;;;;;;;;;;14.98;60.91;99869.47;4468669;32;33605;-85
2022/11/03 09:17:55;;;;;;;;;;;;;;;15.13;60.54;99863.44;4468689;32;33427;-86
2022/11/03 09:20:22;;;;;;;;;;;;;;;15.72;59.19;99860.22;4468994;32;33948;-84
2022/11/03 09:22:54;;;;;;;;;;;;;;;16.08;57.96;99856.84;4468699;32;33800;-85
2022/11/03 09:25:24;;;;;;;;;;;;;;;15.77;59.02;99863.75;4468732;32;33316;-86
2022/11/03 09:27:52;;;;;;;;;;;;;;;15.75;59.39;99860.25;4468746;32;34291;-86
2022/11/03 09:30:19;;;;;;;;;;;;;;;15.99;58.94;99856.84;4468547;32;35253;-85
2022/11/03 09:32:47;;;;;;;;;;;;;;;15.55;60.20;99852.31;4464982;32;34795;-85
2022/11/03 09:35:15;;;;;;;;;;;;;;;15.76;59.45;99851.56;4438946;32;33734;-86
2022/11/03 09:37:43;;;;;;;;;;;;;;;15.22;61.28;99858.25;4453064;32;35152;-85
2022/11/03 09:40:10;;;;;;;;;;;;;;;15.19;61.61;99853.00;4452968;32;35225;-86
2022/11/03 09:42:38;;;;;;;;;;;;;;;15.46;61.17;99853.16;4453178;32;34588;-84
2022/11/03 09:45:06;;;;;;;;;;;;;;;15.69;60.27;99849.78;4438512;32;32265;-86
2022/11/03 09:47:40;;;;;;;;;;;;;;;15.45;60.88;99847.91;4452919;32;34308;-86
2022/11/03 09:50:15;;;;;;;;;;;;;;;16.05;58.99;99828.94;4439139;32;35051;-85
2022/11/03 09:52:42;;;;;;;;;;;;;;;15.52;60.91;99840.09;4453766;32;34118;-84
2022/11/03 09:55:26;;;;;;;;;;;;;;;15.44;61.04;99838.34;4467392;32;33701;-83
2022/11/03 09:57:54;;;;;;;;;;;;;;;15.41;61.12;99822.66;4454162;32;35116;-86
2022/11/03 10:00:22;;;;;;;;;;;;;;;15.15;62.17;99831.22;4445523;32;33280;-86
2022/11/03 10:02:49;;;;;;;;;;;;;;;15.17;62.05;99824.28;4452889;32;34649;-85
2022/11/03 10:05:23;;;;;;;;;;;;;;;15.59;61.31;99817.47;4438753;32;33601;-85
2022/11/03 10:07:51;;;;;;;;;;;;;;;16.35;58.65;99811.50;4438777;32;34968;-85
2022/11/03 10:10:19;;;;;;;;;;;;;;;15.60;60.71;99806.16;4438698;32;34477;-85
2022/11/03 10:12:47;;;;;;;;;;;;;;;16.17;59.17;99795.81;4453088;32;34307;-85
2022/11/03 10:15:15;;;;;;;;;;;;;;;15.52;60.86;99795.69;4438835;32;33643;-86
2022/11/03 10:17:43;;;;;;;;;;;;;;;15.49;61.33;99795.69;4438076;32;34842;-85
2022/11/03 10:20:11;;;;;;;;;;;;;;;15.61;61.12;99781.78;4450390;32;35206;-85
2022/11/03 10:22:39;;;;;;;;;;;;;;;15.69;60.82;99777.47;4468169;32;34484;-85
2022/11/03 10:25:25;;;;;;;;;;;;;;;15.46;61.22;99779.13;4454340;32;33396;-86
2022/11/03 10:28:05;;;;;;;;;;;;;;;14.59;63.22;99788.31;4468240;32;34511;-84
2022/11/03 10:30:53;;;;;;;;;;;;;;;14.65;63.41;99789.19;4443433;32;34831;-85
2022/11/03 10:33:39;;;;;;;;;;;;;;;14.54;63.20;99783.91;4440508;32;35296;-86
2022/11/03 10:36:15;;;;;;;;;;;;;;;15.07;61.60;99781.56;4438594;32;34406;-86
2022/11/03 10:38:43;;;;;;;;;;;;;;;15.17;61.43;99776.41;4452589;32;33583;-85
2022/11/03 10:41:14;;;;;;;;;;;;;;;14.68;62.87;99774.44;4452488;32;35090;-84
2022/11/03 10:43:42;;;;;;;;;;;;;;;14.20;64.75;99767.09;4457997;32;34224;-85
2022/11/03 10:46:21;;;;;;;;;;;;;;;14.59;63.91;99763.94;4453747;32;33655;-86
2022/11/03 10:49:11;;;;;;;;;;;;;;;14.91;62.65;99763.25;4456567;32;34264;-84
2022/11/03 10:51:39;;;;;;;;;;;;;;;14.97;62.66;99756.31;4467950;32;34272;-85
2022/11/03 10:54:09;;;;;;;;;;;;;;;14.45;64.09;99745.56;4468253;32;34561;-84
2022/11/03 10:56:36;;;;;;;;;;;;;;;14.88;62.88;99748.41;4453760;32;33473;-85
2022/11/03 10:59:03;;;;;;;;;;;;;;;15.07;62.61;99742.41;4467848;32;34908;-85
2022/11/03 11:01:30;;;;;;;;;;;;;;;15.95;59.63;99738.28;4453960;32;35760;-84
2022/11/03 11:03:58;;;;;;;;;;;;;;;16.26;58.49;99735.66;4454047;32;34064;-85
2022/11/03 11:06:28;;;;;;;;;;;;;;;16.17;58.57;99733.03;4468422;32;34512;-85
2022/11/03 11:09:02;;;;;;;;;;;;;;;15.50;60.42;99734.72;4468247;32;34181;-85
2022/11/03 11:11:30;;;;;;;;;;;;;;;14.90;62.33;99732.78;4467920;32;34631;-85
2022/11/03 11:14:16;;;;;;;;;;;;;;;14.28;64.58;99731.50;4457949;32;34133;-85
2022/11/03 11:16:46;;;;;;;;;;;;;;;15.27;62.00;99710.28;4452703;32;34261;-85
2022/11/03 11:19:13;;;;;;;;;;;;;;;14.92;62.56;99713.63;4467625;32;33924;-85
2022/11/03 11:21:40;;;;;;;;;;;;;;;14.81;63.09;99705.78;4467919;32;34361;-84
2022/11/03 11:24:08;;;;;;;;;;;;;;;15.48;61.31;99705.06;4454626;32;34585;-85
2022/11/03 11:26:36;;;;;;;;;;;;;;;15.48;60.87;99705.06;4452408;32;33669;-86
2022/11/03 11:29:09;;;;;;;;;;;;;;;14.99;62.48;99704.97;4438229;32;34366;-86
2022/11/03 11:31:37;;;;;;;;;;;;;;;14.82;63.14;99701.44;4452149;32;34831;-86
2022/11/03 11:34:16;;;;;;;;;;;;;;;14.00;65.71;99704.37;4438414;32;34102;-86
2022/11/03 11:37:03;;;;;;;;;;;;;;;14.21;65.41;99694.13;4452421;32;33024;-85
2022/11/03 11:39:30;;;;;;;;;;;;;;;15.19;62.22;99686.75;4451832;32;34000;-85
2022/11/03 11:42:10;;;;;;;;;;;;;;;15.02;62.49;99681.47;4451960;32;34110;-86
2022/11/03 11:44:38;;;;;;;;;;;;;;;15.08;62.17;99670.19;4452097;32;34414;-85
2022/11/03 11:47:24;;;;;;;;;;;;;;;15.52;61.20;99675.47;4452085;32;33606;-87
2022/11/03 11:50:00;;;;;;;;;;;;;;;15.21;61.96;99668.47;4438223;32;33660;-85
2022/11/03 11:52:28;;;;;;;;;;;;;;;15.30;61.83;99668.47;4452783;32;35341;-84
2022/11/03 11:54:55;;;;;;;;;;;;;;;15.03;62.53;99666.69;4453146;32;34505;-85
2022/11/03 11:57:22;;;;;;;;;;;;;;;15.19;62.02;99659.75;4467936;32;33665;-84
2022/11/03 11:59:50;;;;;;;;;;;;;;;15.29;61.94;99656.28;4453353;32;34114;-85
2022/11/03 12:02:18;;;;;;;;;;;;;;;14.44;64.31;99665.56;4467327;32;34160;-86
2022/11/03 12:04:46;;;;;;;;;;;;;;;14.74;63.62;99646.59;4467753;32;34979;-85
2022/11/03 12:07:13;;;;;;;;;;;;;;;15.04;63.04;99643.19;4453159;32;34353;-85
2022/11/03 12:09:59;;;;;;;;;;;;;;;15.05;62.71;99637.09;4467403;32;34949;-84
2022/11/03 12:12:32;;;;;;;;;;;;;;;15.26;61.93;99635.37;4467413;32;33932;-84
2022/11/03 12:14:59;;;;;;;;;;;;;;;14.97;62.68;99633.59;4466026;32;34988;-84
2022/11/03 12:17:26;;;;;;;;;;;;;;;15.09;62.47;99633.63;4467525;32;33751;-84
2022/11/03 12:19:54;;;;;;;;;;;;;;;15.40;61.67;99632.78;4467318;32;34363;-86
2022/11/03 12:22:28;;;;;;;;;;;;;;;15.56;60.89;99627.56;4467857;32;33815;-84
2022/11/03 12:24:59;;;;;;;;;;;;;;;15.73;60.46;99626.72;4467260;32;35093;-85
2022/11/03 12:27:28;;;;;;;;;;;;;;;15.96;59.33;99624.97;4467353;32;34258;-86
2022/11/03 12:29:56;;;;;;;;;;;;;;;14.95;62.37;99624.00;4467473;32;33760;-86
2022/11/03 12:32:23;;;;;;;;;;;;;;;14.68;63.42;99624.81;4467346;32;33714;-86
2022/11/03 12:35:05;;;;;;;;;;;;;;;15.19;62.23;99612.72;4467220;32;34261;-83
2022/11/03 12:37:32;;;;;;;;;;;;;;;15.33;61.71;99608.41;4467478;32;33815;-85
2022/11/03 12:39:59;;;;;;;;;;;;;;;15.17;62.70;99611.87;4466275;32;35018;-85
2022/11/03 12:42:26;;;;;;;;;;;;;;;15.78;60.56;99604.06;4467355;32;35231;-86
2022/11/03 12:44:54;;;;;;;;;;;;;;;15.76;60.16;99597.97;4462860;32;35137;-85
2022/11/03 12:47:21;;;;;;;;;;;;;;;15.25;61.47;99603.16;4451625;32;33299;-86
2022/11/03 12:49:49;;;;;;;;;;;;;;;15.32;61.64;99594.47;4437684;32;34127;-84
2022/11/03 12:52:16;;;;;;;;;;;;;;;15.15;61.88;99595.31;4451732;32;34022;-85
2022/11/03 12:54:43;;;;;;;;;;;;;;;15.02;62.69;99600.53;4451796;32;34580;-85
2022/11/03 12:57:11;;;;;;;;;;;;;;;15.40;61.57;99588.38;4453121;32;33696;-86
2022/11/03 12:59:38;;;;;;;;;;;;;;;15.61;60.97;99592.72;4456964;32;33838;-85
2022/11/03 13:02:05;;;;;;;;;;;;;;;15.23;62.17;99591.88;4464090;32;34096;-85
2022/11/03 13:04:33;;;;;;;;;;;;;;;15.14;62.20;99593.59;4463982;32;35144;-85
2022/11/03 13:07:00;;;;;;;;;;;;;;;15.08;62.03;99594.47;4452383;32;34192;-84
2022/11/03 13:09:27;;;;;;;;;;;;;;;16.25;59.11;99584.75;4463974;32;34024;-86
2022/11/03 13:14:40;;;;;;;;;;;;;;;15.94;59.63;99579.63;4466490;32;34494;-85
2022/11/03 13:17:14;;;;;;;;;;;;;;;15.15;61.89;99571.81;4465537;32;34072;-85
2022/11/03 13:19:41;;;;;;;;;;;;;;;15.25;61.88;99570.97;4464657;32;34067;-85
2022/11/03 13:22:08;;;;;;;;;;;;;;;14.98;62.75;99575.28;4466568;32;34353;-84
2022/11/03 13:24:35;;;;;;;;;;;;;;;14.23;65.28;99579.38;4466650;32;34300;-84